createdAt,value
2019-01-02T00:02:08.112Z,23.60
2019-01-02T00:04:38.601Z,23.60
2019-01-02T00:07:09.754Z,23.70
2019-01-02T00:09:40.162Z,23.80
2019-01-02T00:12:11.145Z,23.90
2019-01-02T00:14:41.688Z,24.00
2019-01-02T00:17:12.389Z,24.00
2019-01-02T00:19:42.795Z,24.00
2019-01-02T00:22:17.502Z,24.00
2019-01-02T00:24:48.065Z,24.10
2019-01-02T00:27:36.346Z,24.20
2019-01-02T00:29:50.785Z,24.20
2019-01-02T00:32:30.590Z,24.20
2019-01-02T00:35:01.034Z,24.20
2019-01-02T00:37:31.404Z,24.10
2019-01-02T00:40:01.737Z,24.10
2019-01-02T00:42:32.686Z,24.10
2019-01-02T00:45:03.074Z,24.00
2019-01-02T00:47:33.637Z,24.00
2019-01-02T00:50:04.250Z,24.00
2019-01-02T00:52:35.092Z,24.00
2019-01-02T00:55:05.770Z,24.00
2019-01-02T00:57:36.607Z,24.00
2019-01-02T01:00:09.479Z,23.90
2019-01-02T01:02:40.413Z,23.90
2019-01-02T01:05:10.753Z,24.00
2019-01-02T01:07:41.667Z,24.00
2019-01-02T01:10:14.762Z,24.00
2019-01-02T01:12:45.481Z,23.80
2019-01-02T01:15:15.882Z,23.80
2019-01-02T01:17:47.129Z,23.80
2019-01-02T01:20:18.615Z,23.80
2019-01-02T01:22:48.972Z,23.80
2019-01-02T01:25:19.574Z,23.80
2019-01-02T01:27:49.923Z,23.60
2019-01-02T01:30:20.766Z,23.70
2019-01-02T01:32:51.149Z,23.40
2019-01-02T01:35:21.501Z,23.50
2019-01-02T01:37:52.273Z,23.40
2019-01-02T01:40:22.674Z,23.30
2019-01-02T01:42:53.068Z,23.40
2019-01-02T01:45:23.899Z,23.30
2019-01-02T01:47:54.645Z,23.20
2019-01-02T01:50:24.982Z,23.20
2019-01-02T01:52:55.296Z,23.10
2019-01-02T01:55:25.810Z,23.00
2019-01-02T01:57:56.787Z,23.10
2019-01-02T02:00:27.124Z,23.20
2019-01-02T02:02:57.614Z,22.90
2019-01-02T02:05:28.440Z,22.70
2019-01-02T02:07:58.776Z,22.60
2019-01-02T02:10:29.260Z,22.50
2019-01-02T02:12:59.829Z,22.50
2019-01-02T02:15:30.126Z,22.70
2019-01-02T02:18:01.232Z,22.60
2019-01-02T02:20:31.601Z,22.70
2019-01-02T02:23:01.921Z,22.60
2019-01-02T02:25:34.041Z,22.40
2019-01-02T02:28:04.370Z,22.30
2019-01-02T02:30:35.398Z,22.30
2019-01-02T02:33:05.779Z,22.00
2019-01-02T02:35:36.116Z,22.10
2019-01-02T02:38:06.773Z,22.10
2019-01-02T02:40:37.232Z,21.80
2019-01-02T02:43:07.588Z,21.60
2019-01-02T02:45:37.952Z,21.70
2019-01-02T02:48:08.963Z,21.90
2019-01-02T02:50:39.717Z,21.70
2019-01-02T02:53:10.573Z,21.50
2019-01-02T02:55:41.491Z,21.50
2019-01-02T02:58:12.191Z,21.60
2019-01-02T03:00:43.342Z,21.50
2019-01-02T03:03:14.159Z,21.50
2019-01-02T03:05:44.564Z,21.60
2019-01-02T03:08:14.923Z,21.40
2019-01-02T03:10:45.785Z,21.70
2019-01-02T03:13:16.690Z,21.90
2019-01-02T03:15:47.516Z,22.10
2019-01-02T03:18:18.629Z,22.00
2019-01-02T03:20:49.063Z,22.10
2019-01-02T03:23:19.429Z,22.10
2019-01-02T03:25:50.098Z,21.90
2019-01-02T03:28:21.166Z,21.90
2019-01-02T03:30:51.886Z,21.70
2019-01-02T03:33:22.804Z,21.60
2019-01-02T03:35:53.277Z,21.20
2019-01-02T03:38:23.604Z,21.30
2019-01-02T03:40:53.892Z,21.20
2019-01-02T03:43:24.408Z,21.10
2019-01-02T03:45:54.864Z,21.40
2019-01-02T03:48:25.256Z,21.30
2019-01-02T03:50:55.743Z,21.40
2019-01-02T03:53:26.023Z,21.60
2019-01-02T03:55:56.375Z,21.60
2019-01-02T03:58:26.853Z,21.40
2019-01-02T04:00:57.143Z,21.40
2019-01-02T04:03:27.490Z,21.50
2019-01-02T04:05:57.859Z,21.60
2019-01-02T04:08:28.627Z,21.50
2019-01-02T04:10:58.961Z,21.20
2019-01-02T04:13:29.421Z,21.20
2019-01-02T04:15:59.769Z,21.30
2019-01-02T04:18:30.241Z,21.20
2019-01-02T04:21:00.852Z,20.90
2019-01-02T04:23:31.172Z,21.10
2019-01-02T04:26:01.480Z,20.90
2019-01-02T04:28:31.945Z,21.00
2019-01-02T04:31:02.318Z,21.00
2019-01-02T04:33:32.637Z,20.80
2019-01-02T04:36:03.060Z,20.80
2019-01-02T04:38:33.343Z,20.40
2019-01-02T04:41:03.893Z,20.40
2019-01-02T04:43:34.382Z,20.70
2019-01-02T04:46:04.748Z,20.60
2019-01-02T04:48:35.130Z,20.90
2019-01-02T04:51:05.628Z,20.60
2019-01-02T04:53:35.956Z,20.30
2019-01-02T04:56:06.298Z,20.40
2019-01-02T04:58:36.813Z,20.40
2019-01-02T05:01:07.118Z,20.30
2019-01-02T05:03:37.477Z,20.50
2019-01-02T05:06:07.889Z,20.40
2019-01-02T05:08:38.266Z,20.40
2019-01-02T05:11:08.612Z,20.40
2019-01-02T05:13:39.081Z,20.40
2019-01-02T05:16:09.414Z,20.20
2019-01-02T05:18:39.730Z,20.40
2019-01-02T05:21:10.161Z,20.50
2019-01-02T05:23:40.736Z,20.50
2019-01-02T05:26:11.114Z,20.70
2019-01-02T05:28:41.558Z,20.70
2019-01-02T05:31:11.940Z,20.80
2019-01-02T05:33:42.250Z,20.90
2019-01-02T05:36:12.733Z,20.80
2019-01-02T05:38:43.064Z,20.90
2019-01-02T05:41:13.463Z,20.90
2019-01-02T05:43:43.894Z,20.80
2019-01-02T05:46:14.226Z,20.90
2019-01-02T05:48:44.555Z,20.90
2019-01-02T05:51:15.024Z,20.90
2019-01-02T05:53:45.285Z,21.00
2019-01-02T05:56:15.632Z,21.00
2019-01-02T05:58:46.091Z,21.10
2019-01-02T06:01:16.426Z,21.00
2019-01-02T06:03:46.778Z,21.00
2019-01-02T06:06:17.220Z,21.20
2019-01-02T06:08:47.529Z,21.20
2019-01-02T06:11:18.120Z,21.10
2019-01-02T06:13:48.581Z,21.20
2019-01-02T06:16:18.911Z,21.20
2019-01-02T06:18:49.270Z,21.30
2019-01-02T06:21:19.698Z,21.30
2019-01-02T06:23:50.228Z,21.20
2019-01-02T06:26:20.639Z,21.10
2019-01-02T06:28:51.073Z,21.00
2019-01-02T06:31:21.399Z,21.00
2019-01-02T06:33:51.732Z,20.50
2019-01-02T06:36:22.181Z,20.50
2019-01-02T06:38:52.541Z,20.60
2019-01-02T06:41:22.902Z,20.60
2019-01-02T06:43:53.364Z,20.60
2019-01-02T06:46:23.725Z,20.60
2019-01-02T06:48:54.113Z,20.50
2019-01-02T06:51:24.514Z,20.40
2019-01-02T06:53:54.843Z,20.30
2019-01-02T06:56:25.156Z,20.50
2019-01-02T06:58:55.634Z,20.40
2019-01-02T07:01:25.973Z,20.50
2019-01-02T07:03:56.334Z,20.50
2019-01-02T07:06:26.761Z,20.50
2019-01-02T07:08:57.093Z,20.60
2019-01-02T07:11:27.456Z,20.70
2019-01-02T07:13:57.992Z,20.60
2019-01-02T07:16:28.337Z,20.50
2019-01-02T07:18:58.663Z,20.50
2019-01-02T07:21:29.075Z,20.60
2019-01-02T07:23:59.405Z,20.60
2019-01-02T07:26:29.969Z,20.50
2019-01-02T07:29:00.493Z,20.60
2019-01-02T07:31:30.861Z,20.60
2019-01-02T07:34:03.564Z,20.50
2019-01-02T07:36:57.644Z,20.50
2019-01-02T07:39:47.032Z,20.40
2019-01-02T07:42:40.872Z,20.60
2019-01-02T07:45:22.945Z,20.50
2019-01-02T07:48:10.856Z,20.50
2019-01-02T07:50:43.810Z,20.40
2019-01-02T07:53:31.791Z,20.50
2019-01-02T07:56:32.005Z,20.40
2019-01-02T07:59:25.330Z,20.50
2019-01-02T08:02:01.206Z,20.30
2019-01-02T08:04:57.674Z,20.30
2019-01-02T08:07:39.629Z,20.30
2019-01-02T08:10:28.603Z,20.30
2019-01-02T08:13:18.053Z,20.30
2019-01-02T08:16:07.245Z,20.30
2019-01-02T08:19:05.628Z,20.30
2019-01-02T08:21:44.344Z,20.20
2019-01-02T08:24:36.719Z,20.20
2019-01-02T08:27:18.543Z,20.10
2019-01-02T08:29:57.221Z,20.10
2019-01-02T08:32:42.477Z,20.20
2019-01-02T08:35:18.274Z,20.30
2019-01-02T08:37:56.773Z,20.20
2019-01-02T08:40:44.731Z,20.20
2019-01-02T08:43:29.634Z,20.20
2019-01-02T08:46:32.333Z,20.10
2019-01-02T08:49:38.131Z,20.10
2019-01-02T08:52:26.384Z,20.10
2019-01-02T08:55:20.108Z,20.00
2019-01-02T08:58:09.623Z,19.90
2019-01-02T09:00:57.844Z,20.00
2019-01-02T09:03:42.626Z,20.10
2019-01-02T09:06:27.532Z,20.10
2019-01-02T09:09:20.341Z,20.10
2019-01-02T09:12:17.465Z,20.10
2019-01-02T09:15:08.489Z,20.10
2019-01-02T09:17:57.898Z,20.10
2019-01-02T09:20:33.375Z,20.10
2019-01-02T09:23:18.301Z,20.10
2019-01-02T09:26:07.639Z,20.10
2019-01-02T09:29:11.400Z,20.10
2019-01-02T09:32:04.030Z,20.00
2019-01-02T09:35:07.306Z,20.00
2019-01-02T09:37:42.787Z,19.90
2019-01-02T09:40:27.345Z,19.60
2019-01-02T09:43:09.188Z,19.50
2019-01-02T09:45:56.966Z,19.50
2019-01-02T09:48:29.943Z,19.50
2019-01-02T09:51:11.837Z,19.30
2019-01-02T09:53:53.877Z,19.30
2019-01-02T09:56:41.634Z,19.30
2019-01-02T09:59:23.829Z,19.30
2019-01-02T10:02:17.614Z,19.00
2019-01-02T10:05:02.495Z,18.90
2019-01-02T10:07:44.245Z,18.90
2019-01-02T10:10:17.221Z,18.90
2019-01-02T10:13:07.985Z,19.00
2019-01-02T10:15:41.016Z,18.90
2019-01-02T10:18:48.844Z,18.70
2019-01-02T10:21:30.549Z,19.00
2019-01-02T10:24:15.229Z,19.10
2019-01-02T10:26:48.110Z,19.10
2019-01-02T10:29:21.236Z,18.90
2019-01-02T10:32:12.160Z,18.80
2019-01-02T10:34:50.960Z,18.80
2019-01-02T10:37:26.687Z,18.60
2019-01-02T10:40:05.369Z,18.80
2019-01-02T10:42:50.419Z,19.00
2019-01-02T10:45:35.429Z,19.20
2019-01-02T10:48:17.329Z,19.30
2019-01-02T10:50:59.081Z,19.30
2019-01-02T10:53:37.607Z,19.30
2019-01-02T10:56:16.443Z,19.10
2019-01-02T10:59:15.018Z,18.90
2019-01-02T11:01:59.725Z,19.00
2019-01-02T11:04:35.231Z,18.70
2019-01-02T11:07:27.616Z,18.30
2019-01-02T11:10:09.195Z,18.10
2019-01-02T11:12:54.135Z,18.10
2019-01-02T11:15:35.858Z,18.40
2019-01-02T11:18:20.542Z,18.80
2019-01-02T11:21:02.755Z,18.90
2019-01-02T11:23:53.411Z,18.60
2019-01-02T11:26:26.365Z,18.60
2019-01-02T11:29:08.279Z,18.80
2019-01-02T11:31:59.897Z,18.90
2019-01-02T11:34:44.613Z,18.90
2019-01-02T11:37:26.698Z,19.00
2019-01-02T11:40:17.881Z,19.10
2019-01-02T11:42:53.768Z,19.10
2019-01-02T11:45:24.596Z,19.00
2019-01-02T11:47:55.057Z,19.10
2019-01-02T11:50:25.475Z,19.20
2019-01-02T11:52:55.844Z,19.20
2019-01-02T11:55:26.198Z,19.30
2019-01-02T11:57:56.671Z,19.30
2019-01-02T12:00:27.007Z,19.40
2019-01-02T12:02:57.281Z,19.40
2019-01-02T12:05:27.706Z,19.40
2019-01-02T12:07:58.082Z,19.40
2019-01-02T12:10:28.518Z,19.40
2019-01-02T12:12:59.001Z,19.40
2019-01-02T12:15:29.288Z,19.30
2019-01-02T12:17:59.677Z,19.20
2019-01-02T12:20:30.097Z,19.00
2019-01-02T12:23:00.443Z,18.90
2019-01-02T12:25:30.781Z,18.70
2019-01-02T12:28:01.199Z,18.70
2019-01-02T12:30:31.542Z,18.60
2019-01-02T12:33:02.140Z,18.50
2019-01-02T12:35:32.518Z,18.50
2019-01-02T12:38:02.885Z,18.40
2019-01-02T12:40:33.242Z,18.30
2019-01-02T12:43:03.784Z,18.30
2019-01-02T12:45:34.167Z,18.30
2019-01-02T12:48:04.466Z,18.20
2019-01-02T12:50:34.847Z,18.30
2019-01-02T12:53:05.470Z,18.50
2019-01-02T12:55:35.815Z,18.60
2019-01-02T12:58:06.311Z,18.80
2019-01-02T13:00:41.762Z,19.10
2019-01-02T13:03:17.561Z,19.20
2019-01-02T13:05:50.380Z,19.60
2019-01-02T13:08:23.319Z,19.90
2019-01-02T13:11:11.350Z,20.00
2019-01-02T13:13:59.509Z,20.00
2019-01-02T13:16:50.232Z,20.00
2019-01-02T13:19:39.319Z,20.00
2019-01-02T13:22:17.817Z,20.80
2019-01-02T13:24:56.631Z,21.30
2019-01-02T13:27:32.588Z,21.50
2019-01-02T13:30:31.432Z,21.70
2019-01-02T13:33:04.333Z,21.60
2019-01-02T13:35:41.607Z,21.50
2019-01-02T13:38:26.228Z,21.50
2019-01-02T13:41:02.292Z,21.60
2019-01-02T13:44:06.135Z,21.40
2019-01-02T13:46:54.066Z,21.20
2019-01-02T13:49:27.123Z,21.20
2019-01-02T13:51:57.585Z,21.30
2019-01-02T13:54:28.014Z,21.40
2019-01-02T13:56:58.362Z,21.40
2019-01-02T13:59:28.780Z,21.50
2019-01-02T14:01:59.466Z,21.70
2019-01-02T14:04:48.991Z,21.80
2019-01-02T14:07:19.373Z,21.80
2019-01-02T14:09:49.664Z,22.10
2019-01-02T14:12:20.112Z,22.40
2019-01-02T14:14:50.435Z,22.10
2019-01-02T14:17:20.774Z,22.00
2019-01-02T14:19:51.301Z,22.20
2019-01-02T14:22:21.602Z,22.50
2019-01-02T14:24:51.933Z,22.70
2019-01-02T14:27:22.322Z,22.90
2019-01-02T14:29:52.688Z,22.80
2019-01-02T14:32:23.068Z,22.80
2019-01-02T14:34:54.042Z,22.70
2019-01-02T14:37:24.679Z,22.80
2019-01-02T14:39:55.064Z,22.90
2019-01-02T14:42:25.511Z,23.00
2019-01-02T14:44:55.976Z,22.80
2019-01-02T14:47:26.335Z,22.80
2019-01-02T14:49:57.007Z,22.80
2019-01-02T14:52:27.784Z,23.00
2019-01-02T14:54:58.819Z,23.30
2019-01-02T14:57:29.493Z,23.50
2019-01-02T14:59:59.790Z,23.50
2019-01-02T15:02:30.170Z,23.90
2019-01-02T15:05:00.677Z,24.60
2019-01-02T15:07:31.023Z,25.40
2019-01-02T15:10:01.387Z,25.40
2019-01-02T15:12:31.823Z,25.70
2019-01-02T15:15:02.181Z,26.20
2019-01-02T15:17:32.497Z,26.60
2019-01-02T15:20:02.996Z,27.10
2019-01-02T15:22:33.338Z,27.40
2019-01-02T15:25:03.674Z,27.60
2019-01-02T15:27:34.074Z,27.60
2019-01-02T15:30:04.365Z,27.70
2019-01-02T15:32:37.360Z,28.20
2019-01-02T15:35:08.757Z,28.10
2019-01-02T15:37:39.092Z,27.70
2019-01-02T15:40:10.929Z,28.30
2019-01-02T15:42:41.357Z,28.90
2019-01-02T15:45:11.813Z,28.70
2019-01-02T15:47:42.234Z,28.30
2019-01-02T15:50:13.438Z,28.30
2019-01-02T15:52:43.766Z,28.00
2019-01-02T15:55:14.085Z,27.10
2019-01-02T15:57:44.494Z,27.00
2019-01-02T16:00:15.247Z,27.10
2019-01-02T16:02:46.853Z,27.40
2019-01-02T16:05:17.324Z,28.10
2019-01-02T16:07:47.990Z,29.00
2019-01-02T16:10:20.180Z,29.00
2019-01-02T16:12:50.569Z,29.00
2019-01-02T16:15:20.890Z,29.40
2019-01-02T16:17:51.279Z,29.40
2019-01-02T16:20:21.752Z,28.90
2019-01-02T16:22:54.607Z,29.50
2019-01-02T16:25:25.440Z,30.10
2019-01-02T16:27:55.847Z,29.60
2019-01-02T16:30:26.164Z,29.50
2019-01-02T16:32:56.563Z,30.00
2019-01-02T16:35:26.912Z,30.00
2019-01-02T16:37:57.205Z,30.00
2019-01-02T16:40:27.658Z,30.00
2019-01-02T16:42:58.457Z,29.70
2019-01-02T16:45:28.837Z,29.20
2019-01-02T16:47:59.232Z,29.60
2019-01-02T16:50:29.533Z,30.10
2019-01-02T16:52:59.905Z,30.20
2019-01-02T16:55:31.749Z,30.30
2019-01-02T16:58:02.394Z,30.30
2019-01-02T17:00:32.679Z,30.90
2019-01-02T17:03:03.257Z,30.90
2019-01-02T17:05:33.570Z,31.10
2019-01-02T17:08:07.649Z,31.70
2019-01-02T17:10:38.496Z,31.80
2019-01-02T17:13:08.868Z,30.90
2019-01-02T17:15:39.368Z,30.80
2019-01-02T17:18:11.174Z,30.80
2019-01-02T17:20:41.600Z,31.00
2019-01-02T17:23:12.202Z,31.20
2019-01-02T17:25:42.489Z,30.80
2019-01-02T17:28:14.134Z,30.40
2019-01-02T17:30:44.592Z,31.20
2019-01-02T17:33:14.945Z,32.00
2019-01-02T17:35:45.382Z,31.50
2019-01-02T17:38:15.718Z,31.40
2019-01-02T17:40:46.086Z,31.60
2019-01-02T17:43:16.501Z,31.20
2019-01-02T17:45:47.227Z,32.10
2019-01-02T17:48:17.593Z,32.50
2019-01-02T17:50:48.085Z,32.30
2019-01-02T17:53:18.413Z,31.50
2019-01-02T17:55:48.752Z,31.10
2019-01-02T17:58:19.262Z,31.60
2019-01-02T18:00:49.786Z,32.50
2019-01-02T18:03:20.181Z,33.20
2019-01-02T18:05:50.844Z,33.00
2019-01-02T18:08:21.159Z,31.90
2019-01-02T18:10:51.536Z,31.20
2019-01-02T18:13:21.988Z,31.40
2019-01-02T18:15:52.328Z,31.80
2019-01-02T18:18:22.624Z,31.20
2019-01-02T18:20:53.060Z,31.10
2019-01-02T18:23:23.364Z,30.90
2019-01-02T18:25:53.744Z,31.40
2019-01-02T18:28:24.173Z,31.40
2019-01-02T18:30:54.654Z,31.40
2019-01-02T18:33:25.086Z,32.20
2019-01-02T18:35:55.581Z,32.30
2019-01-02T18:38:25.947Z,32.60
2019-01-02T18:40:56.300Z,32.30
2019-01-02T18:43:26.692Z,32.70
2019-01-02T18:45:57.026Z,33.10
2019-01-02T18:48:28.811Z,33.30
2019-01-02T18:50:59.313Z,33.40
2019-01-02T18:53:29.649Z,33.50
2019-01-02T18:56:00.011Z,33.30
2019-01-02T18:58:30.376Z,33.30
2019-01-02T19:01:00.866Z,31.90
2019-01-02T19:03:31.249Z,31.10
2019-01-02T19:06:01.720Z,31.10
2019-01-02T19:08:32.092Z,30.70
2019-01-02T19:11:02.441Z,30.60
2019-01-02T19:13:32.829Z,30.90
2019-01-02T19:16:03.202Z,31.60
2019-01-02T19:18:33.522Z,32.40
2019-01-02T19:21:04.104Z,32.10
2019-01-02T19:23:34.382Z,32.10
2019-01-02T19:26:04.738Z,32.70
2019-01-02T19:28:35.160Z,32.10
2019-01-02T19:31:05.507Z,31.50
2019-01-02T19:33:35.837Z,31.30
2019-01-02T19:36:06.347Z,32.10
2019-01-02T19:38:36.664Z,32.90
2019-01-02T19:41:07.025Z,32.70
2019-01-02T19:43:37.417Z,32.40
2019-01-02T19:46:07.810Z,32.30
2019-01-02T19:48:39.369Z,32.40
2019-01-02T19:51:10.426Z,32.60
2019-01-02T19:53:40.711Z,32.90
2019-01-02T19:56:11.185Z,32.10
2019-01-02T19:58:41.575Z,32.20
2019-01-02T20:01:11.949Z,32.40
2019-01-02T20:03:42.286Z,31.90
2019-01-02T20:06:12.883Z,32.30
2019-01-02T20:08:43.189Z,32.80
2019-01-02T20:11:13.619Z,33.40
2019-01-02T20:13:44.040Z,33.70
2019-01-02T20:16:14.369Z,33.60
2019-01-02T20:18:44.680Z,33.40
2019-01-02T20:21:15.149Z,33.60
2019-01-02T20:23:45.501Z,33.70
2019-01-02T20:26:15.829Z,33.20
2019-01-02T20:28:46.323Z,33.00
2019-01-02T20:31:16.705Z,32.90
2019-01-02T20:33:47.022Z,33.20
2019-01-02T20:36:18.078Z,33.00
2019-01-02T20:38:48.452Z,32.60
2019-01-02T20:41:18.855Z,32.50
2019-01-02T20:43:49.274Z,32.50
2019-01-02T20:46:19.604Z,32.50
2019-01-02T20:48:49.958Z,32.40
2019-01-02T20:51:21.043Z,32.00
2019-01-02T20:53:53.142Z,32.00
2019-01-02T20:56:23.604Z,32.60
2019-01-02T20:58:53.905Z,32.90
2019-01-02T21:01:24.238Z,32.70
2019-01-02T21:03:55.218Z,31.70
2019-01-02T21:06:25.632Z,31.70
2019-01-02T21:08:55.979Z,30.40
2019-01-02T21:11:27.803Z,30.50
2019-01-02T21:13:58.170Z,30.90
2019-01-02T21:16:28.471Z,30.80
2019-01-02T21:18:58.878Z,30.10
2019-01-02T21:21:29.233Z,29.80
2019-01-02T21:23:59.587Z,29.40
2019-01-02T21:26:30.450Z,28.80
2019-01-02T21:29:00.780Z,28.90
2019-01-02T21:31:31.071Z,28.40
2019-01-02T21:34:02.618Z,28.60
2019-01-02T21:36:32.998Z,28.50
2019-01-02T21:39:03.349Z,28.00
2019-01-02T21:41:33.789Z,27.90
2019-01-02T21:44:04.104Z,27.50
2019-01-02T21:46:34.438Z,27.80
2019-01-02T21:49:04.861Z,27.80
2019-01-02T21:51:35.148Z,27.60
2019-01-02T21:54:05.489Z,27.50
2019-01-02T21:56:36.161Z,27.50
2019-01-02T21:59:06.617Z,27.80
2019-01-02T22:01:36.959Z,27.70
2019-01-02T22:04:07.447Z,27.40
2019-01-02T22:06:38.944Z,27.60
2019-01-02T22:09:09.231Z,27.20
2019-01-02T22:11:41.720Z,27.10
2019-01-02T22:14:12.066Z,27.40
2019-01-02T22:16:42.466Z,27.50
2019-01-02T22:19:12.853Z,27.60
2019-01-02T22:21:54.413Z,27.30
2019-01-02T22:24:24.807Z,27.10
2019-01-02T22:26:55.139Z,27.20
2019-01-02T22:29:25.514Z,27.00
2019-01-02T22:31:55.950Z,27.00
2019-01-02T22:34:26.290Z,26.70
2019-01-02T22:36:56.608Z,26.70
2019-01-02T22:39:28.720Z,26.60
2019-01-02T22:41:59.049Z,26.70
2019-01-02T22:44:29.417Z,26.90
2019-01-02T22:47:00.001Z,27.10
2019-01-02T22:49:30.345Z,26.90
2019-01-02T22:52:00.624Z,27.00
2019-01-02T22:54:31.052Z,26.90
2019-01-02T22:57:01.402Z,26.90
2019-01-02T22:59:32.070Z,27.00
2019-01-02T23:02:03.931Z,26.50
2019-01-02T23:04:51.662Z,26.50
2019-01-02T23:07:38.802Z,26.20
2019-01-02T23:10:22.814Z,26.00
2019-01-02T23:12:57.653Z,26.20
2019-01-02T23:15:29.409Z,26.20
2019-01-02T23:18:09.981Z,26.20
2019-01-02T23:20:57.926Z,25.80
2019-01-02T23:23:39.010Z,25.50
2019-01-02T23:26:13.685Z,25.20
2019-01-02T23:29:01.685Z,25.40
2019-01-02T23:31:42.456Z,25.40
2019-01-02T23:34:26.387Z,25.50
2019-01-02T23:37:14.269Z,25.30
2019-01-02T23:39:51.589Z,25.40
2019-01-02T23:42:29.420Z,25.40
2019-01-02T23:45:13.183Z,25.30
2019-01-02T23:47:47.691Z,25.20
2019-01-02T23:50:35.942Z,25.00
2019-01-02T23:53:13.226Z,25.10
2019-01-02T23:55:45.013Z,25.20
2019-01-02T23:58:19.741Z,25.20
